Time;durP1;ratioP1;P1;durP2;ratioP2;P2;SDS_P1;SDS_P2;PMS_P1;PMS_P2;Temp;Humidity;BMP_temperature;BMP_pressure;BME280_temperature;BME280_humidity;BME280_pressure;Samples;Min_cycle;Max_cycle;Signal;HPM_P1;HPM_P2
2022/04/02 00:01:40;;;;;;;3.40;2.70;;;0.50;99.90;;;;;;5058379;28;20051;-60
2022/04/02 00:04:07;;;;;;;4.97;2.90;;;0.50;99.90;;;;;;5058608;28;20053;-60
2022/04/02 00:06:33;;;;;;;6.13;3.47;;;;;;;;;;5040370;28;20052;-60
2022/04/02 00:08:59;;;;;;;5.03;3.47;;;;;;;;;;5058622;28;20104;-60
2022/04/02 00:11:25;;;;;;;5.28;2.60;;;;;;;;;;5023748;28;20076;-60
2022/04/02 00:13:52;;;;;;;4.68;2.60;;;0.10;99.90;;;;;;5058257;28;20041;-60
2022/04/02 00:16:17;;;;;;;5.80;3.70;;;;;;;;;;5058725;28;20077;-59
2022/04/02 00:18:44;;;;;;;4.82;2.65;;;;;;;;;;5040950;28;20083;-60
2022/04/02 00:21:10;;;;;;;5.30;2.78;;;;;;;;;;5040358;28;20045;-60
2022/04/02 00:23:39;;;;;;;4.57;2.78;;;;;;;;;;5057922;28;20052;-60
2022/04/02 00:26:06;;;;;;;4.50;2.83;;;;;;;;;;5034284;28;20590;-61
2022/04/02 00:28:33;;;;;;;6.53;3.03;;;;;;;;;;5019361;28;20053;-60
2022/04/02 00:30:59;;;;;;;6.13;2.65;;;;;;;;;;5019631;28;20041;-60
2022/04/02 00:33:25;;;;;;;4.03;2.78;;;;;;;;;;5036963;28;20076;-60
2022/04/02 00:35:51;;;;;;;4.20;2.88;;;;;;;;;;5020816;28;20049;-60
2022/04/02 00:38:16;;;;;;;4.53;2.72;;;0.10;99.90;;;;;;5037663;28;20110;-60
2022/04/02 00:40:42;;;;;;;5.78;3.03;;;;;;;;;;5019754;28;20483;-60
2022/04/02 00:43:30;;;;;;;5.38;2.88;;;0.20;99.90;;;;;;5003951;28;20038;-60
2022/04/02 00:46:01;;;;;;;5.47;2.25;;;0.20;99.90;;;;;;5032944;28;20033;-60
2022/04/02 00:48:27;;;;;;;3.85;2.50;;;;;;;;;;5057673;28;20048;-60
2022/04/02 00:50:58;;;;;;;5.95;2.70;;;;;;;;;;5040137;28;20041;-60
2022/04/02 00:53:28;;;;;;;6.20;2.58;;;0.00;99.90;;;;;;5039310;28;20506;-60
2022/04/02 00:55:54;;;;;;;6.75;2.72;;;0.20;99.90;;;;;;5039461;28;20091;-60
2022/04/02 00:58:20;;;;;;;6.97;2.55;;;;;;;;;;5057014;28;20467;-60
2022/04/02 01:00:46;;;;;;;6.20;2.75;;;;;;;;;;5039128;28;20048;-60
2022/04/02 01:03:13;;;;;;;5.85;2.90;;;;;;;;;;5039243;28;20407;-60
2022/04/02 01:05:40;;;;;;;7.93;3.38;;;0.20;99.90;;;;;;5038786;28;20053;-59
2022/04/02 01:08:06;;;;;;;3.80;2.60;;;0.30;99.90;;;;;;5057367;28;20090;-61
2022/04/02 01:10:33;;;;;;;4.40;2.95;;;0.30;99.90;;;;;;5039249;28;20052;-60
2022/04/02 01:12:59;;;;;;;5.43;3.85;;;;;;;;;;5055580;28;20041;-60
2022/04/02 01:15:25;;;;;;;4.75;2.92;;;0.20;99.90;;;;;;5038983;28;20078;-59
2022/04/02 01:17:52;;;;;;;4.55;2.83;;;;;;;;;;5038853;28;20048;-61
2022/04/02 01:20:19;;;;;;;5.47;3.20;;;0.40;99.90;;;;;;5057343;28;20036;-60
2022/04/02 01:22:46;;;;;;;5.82;3.53;;;0.30;99.90;;;;;;5039053;28;20092;-60
2022/04/02 01:25:12;;;;;;;10.60;2.75;;;;;;;;;;5056943;28;20045;-60
2022/04/02 01:27:38;;;;;;;2.97;2.50;;;;;;;;;;5039518;28;20052;-60
2022/04/02 01:30:05;;;;;;;7.95;3.22;;;0.10;99.90;;;;;;5057085;28;20534;-60
2022/04/02 01:32:31;;;;;;;5.75;3.13;;;;;;;;;;5038784;28;20033;-60
2022/04/02 01:34:57;;;;;;;4.13;2.60;;;0.10;99.90;;;;;;5039123;28;20047;-60
2022/04/02 01:37:23;;;;;;;5.05;3.17;;;;;;;;;;5056389;28;20041;-60
2022/04/02 01:39:49;;;;;;;3.88;2.78;;;;;;;;;;5056459;28;20483;-60
2022/04/02 01:42:17;;;;;;;4.00;2.88;;;;;;;;;;5056360;28;20029;-59
2022/04/02 01:44:49;;;;;;;3.85;2.70;;;;;;;;;;5037593;28;20048;-59
2022/04/02 01:47:15;;;;;;;5.75;2.40;;;;;;;;;;5038690;28;20048;-60
2022/04/02 01:49:41;;;;;;;5.47;2.95;;;;;;;;;;5056529;28;20037;-59
2022/04/02 01:52:07;;;;;;;4.15;2.58;;;;;;;;;;5038675;28;20446;-60
2022/04/02 01:54:33;;;;;;;5.57;2.75;;;;;;;;;;5056496;28;20460;-60
2022/04/02 01:56:59;;;;;;;8.55;2.80;;;;;;;;;;5055950;28;20072;-59
2022/04/02 01:59:25;;;;;;;4.38;2.65;;;;;;;;;;5038554;28;20049;-60
2022/04/02 02:01:51;;;;;;;4.93;2.13;;;;;;;;;;5056042;28;20044;-59
2022/04/02 02:04:18;;;;;;;7.80;2.65;;;;;;;;;;5056637;28;20053;-59
2022/04/02 02:06:45;;;;;;;4.88;2.33;;;;;;;;;;5056272;28;20043;-60
2022/04/02 02:09:11;;;;;;;6.45;3.75;;;;;;;;;;5056681;28;20052;-59
2022/04/02 02:11:38;;;;;;;4.10;2.40;;;;;;;;;;5038551;28;20079;-60
2022/04/02 02:14:04;;;;;;;3.83;2.47;;;;;;;;;;5056309;28;20087;-59
2022/04/02 02:16:30;;;;;;;6.32;3.17;;;;;;;;;;5055601;28;20048;-60
2022/04/02 02:18:55;;;;;;;4.55;2.42;;;-0.20;99.90;;;;;;5037832;28;20091;-59
2022/04/02 02:21:21;;;;;;;4.35;2.60;;;;;;;;;;5055987;28;20120;-59
2022/04/02 02:23:47;;;;;;;4.47;2.53;;;;;;;;;;5055936;28;20595;-59
2022/04/02 02:26:13;;;;;;;4.57;2.47;;;;;;;;;;5055841;28;20041;-59
2022/04/02 02:28:41;;;;;;;5.07;2.35;;;;;;;;;;5055227;28;20487;-59
2022/04/02 02:31:07;;;;;;;5.38;2.72;;;-0.40;99.90;;;;;;5055483;28;20059;-59
2022/04/02 02:36:17;;;;;;;3.50;2.70;;;;;;;;;;5056581;28;20052;-58
2022/04/02 02:38:44;;;;;;;4.90;2.90;;;;;;;;;;5055631;28;20048;-59
2022/04/02 02:41:10;;;;;;;4.53;2.97;;;;;;;;;;5055541;28;20508;-59
2022/04/02 02:43:36;;;;;;;5.82;3.13;;;;;;;;;;5021669;28;20404;-59
2022/04/02 02:46:02;;;;;;;6.20;3.38;;;;;;;;;;5055877;28;20115;-59
2022/04/02 02:48:28;;;;;;;5.68;2.58;;;;;;;;;;5055413;28;20048;-59
2022/04/02 02:50:54;;;;;;;3.83;2.65;;;;;;;;;;5055368;28;20041;-58
2022/04/02 02:53:21;;;;;;;5.60;3.20;;;;;;;;;;5056110;28;20505;-59
2022/04/02 02:55:50;;;;;;;4.60;2.72;;;;;;;;;;5020504;28;20080;-60
2022/04/02 02:58:16;;;;;;;4.80;3.00;;;;;;;;;;5054652;28;20041;-59
2022/04/02 03:00:43;;;;;;;4.15;2.60;;;;;;;;;;5055538;28;20433;-59
2022/04/02 03:03:09;;;;;;;4.55;2.72;;;;;;;;;;5037422;28;20101;-59
2022/04/02 03:05:35;;;;;;;7.72;2.97;;;;;;;;;;5055062;28;20096;-60
2022/04/02 03:08:02;;;;;;;5.28;2.75;;;;;;;;;;5055274;28;20045;-59
2022/04/02 03:10:28;;;;;;;5.63;2.80;;;;;;;;;;5055249;28;20118;-59
2022/04/02 03:12:57;;;;;;;5.60;2.90;;;-0.50;99.90;;;;;;5037265;28;20041;-59
2022/04/02 03:15:24;;;;;;;5.85;2.70;;;;;;;;;;5055381;28;20036;-59
2022/04/02 03:17:50;;;;;;;6.53;2.83;;;-0.40;99.90;;;;;;5020967;28;20084;-59
2022/04/02 03:20:19;;;;;;;5.68;2.78;;;-0.50;99.90;;;;;;5037298;28;20116;-59
2022/04/02 03:22:46;;;;;;;4.93;2.90;;;;;;;;;;5054838;28;20094;-59
2022/04/02 03:25:15;;;;;;;8.50;2.70;;;-0.60;99.90;;;;;;5036600;28;20120;-60
2022/04/02 03:27:43;;;;;;;4.47;2.80;;;;;;;;;;5054343;28;20041;-58
2022/04/02 03:30:09;;;;;;;5.32;2.60;;;;;;;;;;5037951;28;20095;-59
2022/04/02 03:32:36;;;;;;;4.93;3.05;;;-0.50;99.90;;;;;;5054713;28;20124;-59
2022/04/02 03:35:02;;;;;;;6.72;2.70;;;;;;;;;;5054632;28;20048;-59
2022/04/02 03:37:30;;;;;;;4.20;2.60;;;-0.60;99.90;;;;;;5020887;28;20120;-58
2022/04/02 03:39:56;;;;;;;5.18;2.88;;;-0.60;99.90;;;;;;5036990;28;20049;-59
2022/04/02 03:42:22;;;;;;;7.15;2.80;;;;;;;;;;5055251;28;20047;-60
2022/04/02 03:44:48;;;;;;;4.03;2.47;;;;;;;;;;5054671;28;20037;-59
2022/04/02 03:47:15;;;;;;;4.40;3.40;;;;;;;;;;5037205;28;20037;-59
2022/04/02 03:49:44;;;;;;;4.13;3.00;;;-0.90;99.90;;;;;;5036958;28;20037;-59
2022/04/02 03:52:11;;;;;;;5.22;2.75;;;;;;;;;;5054209;28;20064;-59
2022/04/02 03:54:38;;;;;;;3.78;2.67;;;-0.70;99.90;;;;;;5054536;28;20589;-59
2022/04/02 03:57:05;;;;;;;4.50;3.00;;;;;;;;;;5036949;28;20080;-58
2022/04/02 03:59:31;;;;;;;6.25;3.25;;;;;;;;;;5055213;28;20476;-59
2022/04/02 04:01:57;;;;;;;6.75;2.58;;;;;;;;;;5036916;28;20114;-58
2022/04/02 04:04:24;;;;;;;4.45;2.70;;;;;;;;;;5017649;28;20096;-57
2022/04/02 04:06:51;;;;;;;5.53;2.67;;;;;;;;;;5035782;28;20049;-57
2022/04/02 04:09:17;;;;;;;4.88;2.47;;;;;;;;;;5021968;28;20073;-58
2022/04/02 04:11:43;;;;;;;3.60;2.75;;;;;;;;;;5038725;28;20399;-57
2022/04/02 04:14:09;;;;;;;4.28;2.55;;;;;;;;;;5020613;28;20064;-57
2022/04/02 04:16:36;;;;;;;7.32;2.80;;;;;;;;;;5036214;28;20045;-56
2022/04/02 04:19:01;;;;;;;6.95;3.10;;;;;;;;;;5037137;28;20040;-57
2022/04/02 04:21:27;;;;;;;7.60;2.88;;;;;;;;;;5034789;28;20042;-59
2022/04/02 04:23:53;;;;;;;4.30;2.38;;;;;;;;;;5036222;28;20108;-58
2022/04/02 04:26:19;;;;;;;6.95;2.67;;;;;;;;;;5036322;28;20048;-58
2022/04/02 04:28:45;;;;;;;8.45;3.20;;;;;;;;;;5034921;28;20041;-59
2022/04/02 04:31:11;;;;;;;4.63;2.65;;;;;;;;;;5034576;28;20049;-58
2022/04/02 04:33:38;;;;;;;3.72;2.58;;;;;;;;;;5036051;28;20045;-57
2022/04/02 04:36:04;;;;;;;4.70;2.85;;;;;;;;;;5034650;28;20052;-58
2022/04/02 04:38:30;;;;;;;3.75;2.70;;;;;;;;;;5035750;28;20049;-58
2022/04/02 04:40:57;;;;;;;6.95;2.67;;;;;;;;;;5034802;28;20395;-57
2022/04/02 04:43:24;;;;;;;5.03;2.83;;;;;;;;;;5035777;28;20084;-57
2022/04/02 04:45:49;;;;;;;4.80;2.53;;;;;;;;;;5035771;28;20041;-57
2022/04/02 04:48:15;;;;;;;6.53;3.28;;;;;;;;;;5035795;28;20396;-58
2022/04/02 04:50:41;;;;;;;5.05;3.72;;;;;;;;;;5034325;28;20126;-57
2022/04/02 04:53:09;;;;;;;7.15;3.03;;;;;;;;;;5035299;28;20038;-59
2022/04/02 04:55:35;;;;;;;6.82;2.70;;;;;;;;;;5034219;28;20041;-58
2022/04/02 04:58:02;;;;;;;3.58;2.70;;;-1.10;99.90;;;;;;5031917;28;20049;-58
2022/04/02 05:00:28;;;;;;;6.43;3.00;;;;;;;;;;5004162;28;20053;-57
2022/04/02 05:02:54;;;;;;;4.03;2.58;;;;;;;;;;5035416;28;20060;-61
2022/04/02 05:05:20;;;;;;;5.18;2.42;;;;;;;;;;5050909;28;20077;-61
2022/04/02 05:07:46;;;;;;;5.40;2.60;;;;;;;;;;5037523;28;20041;-61
2022/04/02 05:10:12;;;;;;;7.05;2.58;;;;;;;;;;5055477;28;20391;-61
2022/04/02 05:12:39;;;;;;;4.15;2.30;;;;;;;;;;5020928;28;20033;-61
2022/04/02 05:15:08;;;;;;;5.78;2.50;;;-1.10;99.90;;;;;;5055446;28;20035;-59
2022/04/02 05:17:34;;;;;;;5.30;2.58;;;;;;;;;;5055071;28;20495;-60
2022/04/02 05:20:00;;;;;;;7.60;2.80;;;;;;;;;;5030148;28;20037;-60
2022/04/02 05:22:26;;;;;;;4.07;2.70;;;;;;;;;;5035011;28;20041;-60
2022/04/02 05:24:53;;;;;;;5.10;2.83;;;;;;;;;;5034948;28;20095;-62
2022/04/02 05:27:19;;;;;;;4.30;2.25;;;;;;;;;;5035070;28;20041;-62
2022/04/02 05:29:45;;;;;;;5.32;2.50;;;;;;;;;;5035286;28;20041;-62
2022/04/02 05:32:11;;;;;;;3.35;2.22;;;;;;;;;;5017167;28;20048;-62
2022/04/02 05:34:37;;;;;;;6.07;2.53;;;;;;;;;;5017140;28;20049;-61
2022/04/02 05:37:03;;;;;;;4.60;2.90;;;;;;;;;;5034909;28;20096;-61
2022/04/02 05:39:29;;;;;;;5.72;2.25;;;;;;;;;;5037494;28;20041;-63
2022/04/02 05:41:56;;;;;;;5.40;4.00;;;;;;;;;;5035070;28;20059;-62
2022/04/02 05:44:23;;;;;;;5.20;2.58;;;;;;;;;;5017538;28;20077;-62
2022/04/02 05:46:49;;;;;;;5.25;2.17;;;;;;;;;;5054445;28;20052;-63
2022/04/02 05:49:16;;;;;;;6.68;2.20;;;;;;;;;;5036703;28;20041;-64
2022/04/02 05:51:42;;;;;;;6.38;2.60;;;;;;;;;;5039734;28;20183;-64
2022/04/02 05:54:08;;;;;;;3.53;2.00;;;;;;;;;;5056070;28;20049;-64
2022/04/02 05:56:34;;;;;;;4.28;2.00;;;;;;;;;;5054675;28;20086;-64
2022/04/02 05:59:02;;;;;;;6.57;2.28;;;0.00;99.90;;;;;;5054906;28;20045;-62
2022/04/02 06:01:28;;;;;;;3.53;2.38;;;;;;;;;;5054265;28;20029;-63
2022/04/02 06:03:54;;;;;;;3.00;2.42;;;;;;;;;;5053737;28;20057;-63
2022/04/02 06:06:20;;;;;;;3.92;2.58;;;;;;;;;;5054302;28;20049;-63
2022/04/02 06:08:46;;;;;;;7.25;2.63;;;;;;;;;;5042571;28;20056;-64
2022/04/02 06:11:12;;;;;;;5.43;2.53;;;;;;;;;;5063966;28;20036;-65
2022/04/02 06:13:38;;;;;;;5.43;2.25;;;;;;;;;;5036761;28;20045;-61
2022/04/02 06:16:06;;;;;;;4.97;2.30;;;0.80;99.90;;;;;;5043128;28;20144;-61
2022/04/02 06:18:32;;;;;;;4.40;2.00;;;;;;;;;;5046094;28;20037;-61
2022/04/02 06:21:02;;;;;;;5.20;2.45;;;;;;;;;;5028233;28;20045;-61
2022/04/02 06:23:28;;;;;;;7.20;2.75;;;;;;;;;;5033961;28;20440;-62
2022/04/02 06:25:54;;;;;;;4.95;2.58;;;;;;;;;;5042199;28;20048;-62
2022/04/02 06:28:20;;;;;;;6.55;2.65;;;;;;;;;;5061732;28;20121;-62
2022/04/02 06:30:46;;;;;;;3.53;2.22;;;;;;;;;;5046443;28;20092;-61
2022/04/02 06:33:12;;;;;;;10.15;3.10;;;;;;;;;;5037113;28;20518;-61
2022/04/02 06:35:38;;;;;;;4.57;2.47;;;;;;;;;;5040476;28;20111;-62
2022/04/02 06:38:04;;;;;;;4.47;2.47;;;;;;;;;;5042437;28;20479;-61
2022/04/02 06:40:30;;;;;;;5.90;2.60;;;;;;;;;;5034910;28;20578;-60
2022/04/02 06:42:57;;;;;;;5.55;2.70;;;;;;;;;;5040062;28;20051;-59
2022/04/02 06:45:23;;;;;;;4.15;2.72;;;;;;;;;;5040650;28;20094;-62
2022/04/02 06:47:49;;;;;;;6.65;2.75;;;;;;;;;;5040155;28;20041;-60
2022/04/02 06:50:15;;;;;;;4.50;2.63;;;;;;;;;;5039652;28;20094;-61
2022/04/02 06:52:42;;;;;;;4.35;2.80;;;;;;;;;;5039766;28;20415;-60
2022/04/02 06:55:09;;;;;;;3.95;2.80;;;;;;;;;;5039428;28;20495;-60
2022/04/02 06:57:40;;;;;;;3.80;2.33;;;;;;;;;;5032438;28;20083;-59
2022/04/02 07:00:07;;;;;;;4.18;2.63;;;;;;;;;;5034723;28;20044;-60
2022/04/02 07:02:33;;;;;;;7.13;3.00;;;;;;;;;;5039331;28;20043;-62
2022/04/02 07:04:59;;;;;;;3.15;2.58;;;;;;;;;;5038663;28;20049;-61
2022/04/02 07:07:24;;;;;;;5.50;2.55;;;;;;;;;;5039277;28;20053;-61
2022/04/02 07:09:50;;;;;;;4.70;2.40;;;;;;;;;;5006026;28;20127;-61
2022/04/02 07:12:16;;;;;;;4.60;2.30;;;;;;;;;;5021445;28;20367;-61
2022/04/02 07:14:42;;;;;;;6.13;3.10;;;;;;;;;;5021728;28;20053;-61
2022/04/02 07:17:08;;;;;;;4.95;2.50;;;;;;;;;;5039522;28;20136;-61
2022/04/02 07:19:35;;;;;;;5.32;2.25;;;;;;;;;;5039770;28;20094;-62
2022/04/02 07:22:01;;;;;;;5.45;2.40;;;;;;;;;;5022246;28;20111;-62
2022/04/02 07:24:27;;;;;;;3.88;2.55;;;;;;;;;;5022335;28;20049;-61
2022/04/02 07:26:54;;;;;;;5.03;2.70;;;;;;;;;;5043198;28;20040;-63
2022/04/02 07:29:20;;;;;;;6.65;2.58;;;;;;;;;;5037976;28;20183;-63
2022/04/02 07:31:46;;;;;;;4.43;2.50;;;;;;;;;;5034950;28;20422;-63
2022/04/02 07:34:13;;;;;;;7.50;3.78;;;;;;;;;;5033242;28;20045;-63
2022/04/02 07:36:46;;;;;;;5.15;2.58;;;;;;;;;;5011674;28;20826;-63
2022/04/02 07:39:23;;;;;;;3.53;2.50;;;;;;;;;;5015481;28;20498;-61
2022/04/02 07:41:59;;;;;;;4.80;2.03;;;;;;;;;;5043352;28;20045;-63
2022/04/02 07:44:31;;;;;;;3.05;1.80;;;;;;;;;;5009604;28;20100;-62
2022/04/02 07:46:58;;;;;;;3.33;2.00;;;;;;;;;;5049375;28;20057;-63
2022/04/02 07:49:28;;;;;;;6.47;2.10;;;6.00;99.90;;;;;;5051064;28;20087;-63
2022/04/02 07:51:54;;;;;;;2.35;1.55;;;5.90;99.90;;;;;;5051024;28;20036;-63
2022/04/02 07:54:27;;;;;;;5.45;2.10;;;;;;;;;;5051229;28;20078;-62
2022/04/02 07:57:02;;;;;;;4.90;2.20;;;;;;;;;;5050810;28;20045;-61
2022/04/02 07:59:34;;;;;;;2.97;1.83;;;;;;;;;;5064544;28;20418;-62
2022/04/02 08:02:01;;;;;;;2.70;1.80;;;5.80;99.90;;;;;;5069919;28;20048;-61
2022/04/02 08:04:28;;;;;;;6.50;2.00;;;;;;;;;;5033738;28;20061;-61
2022/04/02 08:06:54;;;;;;;3.42;1.73;;;;;;;;;;5050675;28;20045;-61
2022/04/02 08:09:21;;;;;;;3.97;2.22;;;;;;;;;;5050173;28;20033;-62
2022/04/02 08:11:50;;;;;;;4.47;1.80;;;;;;;;;;5045548;28;20413;-62
2022/04/02 08:14:22;;;;;;;3.28;2.17;;;;;;;;;;5034785;28;20045;-62
2022/04/02 08:16:48;;;;;;;3.92;2.40;;;5.10;99.90;;;;;;5036963;28;20055;-61
2022/04/02 08:19:19;;;;;;;3.30;2.05;;;4.90;99.90;;;;;;5054565;28;20115;-62
2022/04/02 08:21:45;;;;;;;3.92;2.17;;;;;;;;;;5053597;28;20037;-62
2022/04/02 08:24:11;;;;;;;5.70;2.40;;;4.80;99.90;;;;;;5054877;28;20461;-62
2022/04/02 08:26:53;;;;;;;4.70;1.80;;;4.90;99.90;;;;;;5036961;28;20094;-62
2022/04/02 08:29:56;;;;;;;3.45;1.70;;;4.90;99.90;;;;;;5051475;28;20075;-61
2022/04/02 08:32:37;;;;;;;3.00;1.85;;;;;;;;;;5020082;28;20053;-61
2022/04/02 08:35:04;;;;;;;1.83;1.65;;;4.70;99.90;;;;;;5052658;28;20143;-61
2022/04/02 08:37:36;;;;;;;1.80;1.40;;;;;;;;;;5054396;28;20071;-61
2022/04/02 08:40:17;;;;;;;5.25;2.03;;;5.00;99.90;;;;;;5054135;28;20049;-61
2022/04/02 08:43:27;;;;;;;2.85;1.85;;;5.50;99.90;;;;;;5036371;28;20037;-62
2022/04/02 08:46:21;;;;;;;3.97;2.08;;;5.80;99.90;;;;;;5051534;28;20099;-63
2022/04/02 08:48:53;;;;;;;2.95;2.15;;;;;;;;;;5051355;28;20041;-62
2022/04/02 08:51:38;;;;;;;4.55;1.90;;;;;;;;;;5052642;28;20513;-61
2022/04/02 08:54:06;;;;;;;3.50;2.13;;;;;;;;;;5053923;28;20115;-62
2022/04/02 08:56:38;;;;;;;2.95;1.95;;;6.60;99.90;;;;;;5054424;28;20183;-62
2022/04/02 08:59:05;;;;;;;4.13;1.63;;;6.90;99.90;;;;;;5019866;28;20049;-62
2022/04/02 09:01:34;;;;;;;3.42;2.00;;;;;;;;;;5054437;28;20159;-62
2022/04/02 09:04:19;;;;;;;3.08;1.95;;;;;;;;;;5036223;28;20053;-63
2022/04/02 09:07:02;;;;;;;3.43;2.20;;;7.80;99.90;;;;;;5050683;28;20056;-63
2022/04/02 09:09:37;;;;;;;6.72;2.13;;;7.80;99.90;;;;;;5050417;28;20503;-63
2022/04/02 09:12:31;;;;;;;3.72;2.17;;;;;;;;;;5032498;28;20056;-63
2022/04/02 09:15:11;;;;;;;3.92;1.98;;;;;;;;;;5029940;28;20052;-64
2022/04/02 09:17:37;;;;;;;4.80;1.98;;;;;;;;;;5050069;28;20055;-63
2022/04/02 09:20:23;;;;;;;2.55;1.52;;;8.00;99.90;;;;;;5031501;28;20045;-64
2022/04/02 09:23:08;;;;;;;5.85;1.90;;;;;;;;;;5025251;28;20063;-64
2022/04/02 09:25:47;;;;;;;4.88;1.88;;;;;;;;;;5053130;28;20479;-65
2022/04/02 09:28:38;;;;;;;6.40;2.10;;;9.30;99.90;;;;;;5036042;28;20049;-64
2022/04/02 09:31:25;;;;;;;5.40;2.00;;;8.90;99.90;;;;;;5053392;28;20102;-64
2022/04/02 09:34:03;;;;;;;2.85;1.50;;;;;;;;;;5035657;28;20044;-65
2022/04/02 09:36:59;;;;;;;4.78;1.45;;;;;;;;;;5016284;28;20037;-64
2022/04/02 09:39:52;;;;;;;3.10;1.63;;;9.00;99.90;;;;;;4992668;28;20066;-64
2022/04/02 09:42:51;;;;;;;2.85;1.80;;;8.90;99.90;;;;;;5053591;28;20120;-64
2022/04/02 09:45:21;;;;;;;4.10;2.03;;;9.00;99.90;;;;;;5002135;28;20048;-64
2022/04/02 09:47:49;;;;;;;3.55;1.70;;;9.00;99.90;;;;;;5039596;28;20491;-64
2022/04/02 09:50:29;;;;;;;2.20;1.45;;;9.10;99.90;;;;;;5052718;28;20055;-64
2022/04/02 09:52:57;;;;;;;3.05;1.60;;;9.10;99.90;;;;;;5032126;28;20041;-65
2022/04/02 09:55:28;;;;;;;3.22;2.08;;;9.20;99.90;;;;;;5032690;28;20056;-64
2022/04/02 09:58:08;;;;;;;1.92;1.15;;;9.30;99.90;;;;;;5032022;28;20079;-63
2022/04/02 10:01:00;;;;;;;2.50;1.35;;;;;;;;;;5050159;28;20394;-62
2022/04/02 10:03:57;;;;;;;2.53;1.45;;;8.40;99.90;;;;;;5049582;28;20064;-64
2022/04/02 10:06:24;;;;;;;4.00;1.35;;;;;;;;;;5049755;28;20052;-62
2022/04/02 10:09:07;;;;;;;4.90;1.70;;;;;;;;;;5031453;28;20118;-62
2022/04/02 10:11:38;;;;;;;2.85;1.42;;;7.40;99.90;;;;;;5053260;28;20045;-63
2022/04/02 10:14:04;;;;;;;3.15;1.65;;;7.10;99.90;;;;;;5053650;28;20037;-63
2022/04/02 10:16:31;;;;;;;3.10;1.42;;;6.90;99.90;;;;;;5062555;28;20033;-63
2022/04/02 10:19:00;;;;;;;2.97;1.40;;;7.20;99.90;;;;;;5055397;28;20040;-63
2022/04/02 10:21:31;;;;;;;4.63;3.05;;;7.10;99.90;;;;;;5055797;28;20139;-63
2022/04/02 10:24:12;;;;;;;4.25;2.03;;;;;;;;;;5038474;28;20068;-63
2022/04/02 10:26:39;;;;;;;2.60;1.83;;;;;;;;;;5053001;28;20041;-63
2022/04/02 10:29:12;;;;;;;4.05;1.73;;;;;;;;;;5053143;28;20048;-62
2022/04/02 10:32:00;;;;;;;2.28;1.27;;;;;;;;;;5033478;28;20131;-63
2022/04/02 10:34:38;;;;;;;5.60;1.90;;;8.60;99.90;;;;;;5060224;28;20413;-63
2022/04/02 10:37:12;;;;;;;3.58;1.77;;;;;;;;;;5057674;28;20040;-63
2022/04/02 10:39:58;;;;;;;1.45;1.33;;;7.80;99.90;;;;;;5061615;28;20039;-63
2022/04/02 10:42:52;;;;;;;2.30;1.38;;;7.40;99.90;;;;;;5026352;28;20048;-63
2022/04/02 10:45:19;;;;;;;2.28;1.70;;;;;;;;;;5068044;28;20061;-62
2022/04/02 10:47:50;;;;;;;3.70;1.45;;;;;;;;;;5039786;28;20459;-63
2022/04/02 10:50:22;;;;;;;3.10;1.92;;;6.60;99.90;;;;;;5025297;28;20091;-63
2022/04/02 10:52:49;;;;;;;2.83;1.77;;;6.60;99.90;;;;;;5075947;28;20050;-63
2022/04/02 10:55:17;;;;;;;3.33;1.60;;;6.60;99.90;;;;;;5062488;28;20043;-62
2022/04/02 10:57:44;;;;;;;7.68;1.70;;;6.40;99.90;;;;;;5030652;28;20048;-63
2022/04/02 11:00:11;;;;;;;2.17;1.30;;;;;;;;;;5053802;28;20021;-63
2022/04/02 11:02:45;;;;;;;4.70;1.88;;;6.30;99.90;;;;;;5036856;28;20033;-62
2022/04/02 11:05:16;;;;;;;1.55;1.45;;;6.40;99.90;;;;;;5028521;28;20046;-63
2022/04/02 11:07:48;;;;;;;2.83;1.77;;;;;;;;;;5023376;28;20129;-63
2022/04/02 11:10:16;;;;;;;3.72;1.92;;;6.50;99.90;;;;;;5048783;28;20487;-62
2022/04/02 11:12:44;;;;;;;3.67;1.67;;;6.70;99.90;;;;;;5047765;28;20044;-62
2022/04/02 11:15:09;;;;;;;3.65;1.70;;;6.70;99.90;;;;;;5049452;28;20041;-62
2022/04/02 11:17:57;;;;;;;2.22;1.20;;;6.70;99.90;;;;;;5049131;28;20107;-63
2022/04/02 11:20:27;;;;;;;2.88;2.13;;;;;;;;;;5050775;28;20091;-63
2022/04/02 11:23:01;;;;;;;3.03;1.88;;;;;;;;;;5033374;28;20422;-62
2022/04/02 11:25:34;;;;;;;3.42;1.90;;;;;;;;;;5044252;28;20044;-63
2022/04/02 11:28:09;;;;;;;5.50;1.85;;;;;;;;;;5050426;28;20044;-62
2022/04/02 11:30:36;;;;;;;2.13;1.70;;;;;;;;;;5057322;28;20086;-62
2022/04/02 11:33:08;;;;;;;3.75;1.63;;;5.70;99.90;;;;;;5043563;28;20049;-63
2022/04/02 11:35:59;;;;;;;3.15;1.80;;;5.70;99.90;;;;;;5049049;28;20447;-62
2022/04/02 11:38:34;;;;;;;3.35;1.88;;;;;;;;;;5042403;28;20049;-62
2022/04/02 11:41:09;;;;;;;6.32;1.70;;;;;;;;;;5035557;28;20094;-63
2022/04/02 11:43:37;;;;;;;4.07;2.65;;;5.90;99.90;;;;;;5056487;28;20072;-62
2022/04/02 11:46:04;;;;;;;7.88;3.47;;;;;;;;;;5037029;28;20108;-63
2022/04/02 11:48:48;;;;;;;6.75;2.80;;;6.20;99.90;;;;;;5054495;28;20502;-63
2022/04/02 11:51:18;;;;;;;5.07;1.70;;;;;;;;;;5034605;28;20549;-63
2022/04/02 11:53:44;;;;;;;3.70;1.70;;;6.20;99.90;;;;;;5058139;28;20048;-63
2022/04/02 11:56:33;;;;;;;3.70;1.73;;;6.30;99.90;;;;;;5030892;28;20114;-63
2022/04/02 11:59:00;;;;;;;4.32;1.83;;;;;;;;;;5049777;28;20033;-63
2022/04/02 12:01:39;;;;;;;3.03;1.90;;;6.30;99.90;;;;;;5052410;28;20045;-63
2022/04/02 12:04:26;;;;;;;7.25;2.20;;;6.40;99.90;;;;;;5049368;28;20538;-63
2022/04/02 12:07:05;;;;;;;3.72;1.90;;;6.70;99.90;;;;;;5018841;28;20554;-63
2022/04/02 12:09:31;;;;;;;4.35;1.50;;;6.70;99.90;;;;;;5033233;28;20059;-63
2022/04/02 12:12:04;;;;;;;1.90;1.52;;;6.70;99.90;;;;;;5052121;28;20421;-63
2022/04/02 12:14:34;;;;;;;5.40;1.70;;;6.60;99.90;;;;;;5038947;28;20414;-63
2022/04/02 12:17:12;;;;;;;3.40;2.15;;;6.50;99.90;;;;;;5049163;28;20045;-63
2022/04/02 12:19:52;;;;;;;2.80;1.70;;;6.60;99.90;;;;;;5049882;28;20041;-63
2022/04/02 12:22:25;;;;;;;2.70;1.70;;;6.30;99.90;;;;;;5033102;28;20047;-63
2022/04/02 12:24:53;;;;;;;3.33;1.63;;;5.90;99.90;;;;;;5049556;28;20518;-63
2022/04/02 12:27:29;;;;;;;2.42;1.35;;;5.70;99.90;;;;;;5034826;28;20034;-63
2022/04/02 12:29:57;;;;;;;2.45;1.55;;;5.70;99.90;;;;;;5050775;28;20056;-63
2022/04/02 12:32:40;;;;;;;4.03;1.70;;;;;;;;;;5037502;28;20506;-63
2022/04/02 12:35:08;;;;;;;2.85;1.65;;;5.90;99.90;;;;;;5034996;28;20037;-63
2022/04/02 12:37:49;;;;;;;5.03;1.70;;;6.00;99.90;;;;;;5036829;28;20043;-64
2022/04/02 12:40:22;;;;;;;4.22;1.92;;;6.00;99.90;;;;;;5055404;28;20030;-63
2022/04/02 12:42:50;;;;;;;4.30;1.67;;;6.20;99.90;;;;;;5032373;28;20045;-63
2022/04/02 12:45:21;;;;;;;3.65;1.85;;;6.30;99.90;;;;;;5038378;28;20025;-63
2022/04/02 12:48:02;;;;;;;3.33;1.77;;;6.50;99.90;;;;;;5050681;28;20059;-63
2022/04/02 12:50:58;;;;;;;8.43;3.05;;;6.10;99.90;;;;;;5032238;28;20090;-63
2022/04/02 12:53:37;;;;;;;7.68;2.20;;;;;;;;;;5026504;28;20128;-63
2022/04/02 12:56:08;;;;;;;3.10;1.90;;;5.80;99.90;;;;;;5036932;28;20068;-63
2022/04/02 12:58:37;;;;;;;3.88;1.65;;;5.80;99.90;;;;;;5034618;28;20051;-63
2022/04/02 13:01:16;;;;;;;3.78;2.08;;;5.80;99.90;;;;;;5051329;28;20417;-65
2022/04/02 13:04:03;;;;;;;4.50;1.90;;;6.00;99.90;;;;;;5054572;28;20509;-65
2022/04/02 13:06:33;;;;;;;3.85;1.90;;;;;;;;;;5054472;28;20088;-65
2022/04/02 13:09:22;;;;;;;2.67;1.83;;;6.10;99.90;;;;;;5054288;28;20048;-65
2022/04/02 13:11:51;;;;;;;5.63;1.70;;;;;;;;;;5045825;28;20045;-65
2022/04/02 13:14:25;;;;;;;2.38;1.70;;;6.30;99.90;;;;;;5037240;28;20047;-65
2022/04/02 13:17:03;;;;;;;2.63;1.85;;;6.80;99.90;;;;;;5036122;28;20045;-65
2022/04/02 13:22:15;;;;;;;2.60;1.42;;;6.60;99.90;;;;;;5042564;28;20060;-65
2022/04/02 13:24:45;;;;;;;1.70;1.40;;;6.60;99.90;;;;;;5019380;28;20099;-65
2022/04/02 13:27:31;;;;;;;2.53;1.50;;;;;;;;;;5021999;28;20040;-65
2022/04/02 13:30:17;;;;;;;3.33;1.88;;;6.40;99.90;;;;;;5021720;28;20506;-65
2022/04/02 13:32:42;;;;;;;;;;;6.00;99.90;;;;;;5018776;28;20045;-65
2022/04/02 13:35:15;;;;;;;3.05;1.15;;;;;;;;;;5042014;28;19920;-65
2022/04/02 13:38:01;;;;;;;2.63;1.52;;;;;;;;;;5026740;28;20052;-66
2022/04/02 13:40:29;;;;;;;3.20;1.60;;;6.20;99.90;;;;;;5021518;28;20130;-64
2022/04/02 13:42:58;;;;;;;3.95;1.60;;;6.30;99.90;;;;;;5050502;28;20039;-65
2022/04/02 13:45:25;;;;;;;2.45;1.33;;;6.60;99.90;;;;;;5032495;28;20041;-65
2022/04/02 13:48:00;;;;;;;2.53;1.58;;;6.70;99.90;;;;;;5029789;28;20503;-65
2022/04/02 13:50:27;;;;;;;1.77;1.35;;;6.60;99.90;;;;;;5044906;28;20037;-64
2022/04/02 13:53:06;;;;;;;2.35;1.60;;;6.90;99.90;;;;;;5052866;28;20048;-65
2022/04/02 13:55:34;;;;;;;4.13;1.98;;;6.90;99.90;;;;;;5035182;28;20495;-65
2022/04/02 13:58:06;;;;;;;1.73;1.35;;;7.00;99.90;;;;;;5048290;28;20033;-66
2022/04/02 14:00:37;;;;;;;2.17;1.60;;;7.20;99.90;;;;;;5052001;28;20068;-65
2022/04/02 14:03:06;;;;;;;4.25;1.40;;;7.30;99.90;;;;;;5051951;28;20036;-63
2022/04/02 14:05:37;;;;;;;2.58;1.40;;;7.60;99.90;;;;;;5051886;28;20052;-64
2022/04/02 14:08:11;;;;;;;2.28;1.90;;;7.70;99.90;;;;;;5018345;28;20058;-64
2022/04/02 14:10:49;;;;;;;3.92;1.83;;;7.30;99.90;;;;;;5029264;28;20041;-65
2022/04/02 14:13:24;;;;;;;3.35;1.75;;;6.80;99.90;;;;;;5051820;28;20411;-65
2022/04/02 14:15:50;;;;;;;1.65;1.50;;;6.70;99.90;;;;;;5052714;28;20033;-65
2022/04/02 14:18:27;;;;;;;1.95;1.42;;;6.80;99.90;;;;;;5035620;28;20051;-64
2022/04/02 14:21:04;;;;;;;2.40;1.50;;;6.80;99.90;;;;;;5034752;28;20486;-65
2022/04/02 14:23:33;;;;;;;1.98;1.33;;;6.70;99.90;;;;;;5034194;28;20390;-65